sensor_id;sensor_type;location;lat;lon;timestamp;temperature;humidity
11656;DHT22;5884;43.618;1.438;2023-06-26T04:47:41;21.10;99.90
11656;DHT22;5884;43.618;1.438;2023-06-26T04:50:08;21.10;99.90
11656;DHT22;5884;43.618;1.438;2023-06-26T04:52:35;21.20;99.90
11656;DHT22;5884;43.618;1.438;2023-06-26T04:55:03;21.20;99.90
11656;DHT22;5884;43.618;1.438;2023-06-26T04:57:31;21.10;99.90
11656;DHT22;5884;43.618;1.438;2023-06-26T04:59:58;21.10;99.90
11656;DHT22;5884;43.618;1.438;2023-06-26T05:02:27;21.10;99.90
11656;DHT22;5884;43.618;1.438;2023-06-26T05:04:55;21.00;99.90
11656;DHT22;5884;43.618;1.438;2023-06-26T05:07:22;21.10;99.90
11656;DHT22;5884;43.618;1.438;2023-06-26T05:09:49;21.00;99.90
11656;DHT22;5884;43.618;1.438;2023-06-26T05:12:16;20.90;99.90
11656;DHT22;5884;43.618;1.438;2023-06-26T05:14:44;20.80;99.90
11656;DHT22;5884;43.618;1.438;2023-06-26T05:17:13;20.90;99.90
11656;DHT22;5884;43.618;1.438;2023-06-26T05:19:42;20.90;99.90
11656;DHT22;5884;43.618;1.438;2023-06-26T05:22:09;20.80;99.90
11656;DHT22;5884;43.618;1.438;2023-06-26T05:24:38;20.90;99.90
11656;DHT22;5884;43.618;1.438;2023-06-26T05:27:08;20.80;99.90
11656;DHT22;5884;43.618;1.438;2023-06-26T05:29:38;20.80;99.90
11656;DHT22;5884;43.618;1.438;2023-06-26T05:32:07;20.90;99.90
11656;DHT22;5884;43.618;1.438;2023-06-26T05:34:35;20.90;99.90
11656;DHT22;5884;43.618;1.438;2023-06-26T05:37:05;21.00;99.90
11656;DHT22;5884;43.618;1.438;2023-06-26T05:39:34;21.00;99.90
11656;DHT22;5884;43.618;1.438;2023-06-26T05:42:02;21.00;99.90
11656;DHT22;5884;43.618;1.438;2023-06-26T05:44:30;21.10;99.90
11656;DHT22;5884;43.618;1.438;2023-06-26T05:46:57;21.10;99.90
11656;DHT22;5884;43.618;1.438;2023-06-26T05:49:24;21.10;99.90
11656;DHT22;5884;43.618;1.438;2023-06-26T05:51:52;21.00;99.90
11656;DHT22;5884;43.618;1.438;2023-06-26T05:54:22;21.00;99.90
11656;DHT22;5884;43.618;1.438;2023-06-26T05:56:51;20.90;99.90
11656;DHT22;5884;43.618;1.438;2023-06-26T05:59:26;20.90;99.90
11656;DHT22;5884;43.618;1.438;2023-06-26T06:01:53;21.00;99.90
11656;DHT22;5884;43.618;1.438;2023-06-26T06:04:21;21.10;99.90
11656;DHT22;5884;43.618;1.438;2023-06-26T06:06:48;21.10;99.90
11656;DHT22;5884;43.618;1.438;2023-06-26T06:09:15;21.10;99.90
11656;DHT22;5884;43.618;1.438;2023-06-26T06:11:44;21.10;99.90
11656;DHT22;5884;43.618;1.438;2023-06-26T06:14:11;21.20;99.90
11656;DHT22;5884;43.618;1.438;2023-06-26T06:16:38;21.20;99.90
11656;DHT22;5884;43.618;1.438;2023-06-26T06:19:05;21.20;99.90
11656;DHT22;5884;43.618;1.438;2023-06-26T06:21:33;21.20;99.90
11656;DHT22;5884;43.618;1.438;2023-06-26T06:24:00;21.30;99.90
11656;DHT22;5884;43.618;1.438;2023-06-26T06:26:28;21.40;99.90
11656;DHT22;5884;43.618;1.438;2023-06-26T06:28:57;21.40;99.90
11656;DHT22;5884;43.618;1.438;2023-06-26T06:31:24;21.40;99.90
11656;DHT22;5884;43.618;1.438;2023-06-26T06:33:53;21.40;99.90
11656;DHT22;5884;43.618;1.438;2023-06-26T06:36:21;21.40;99.90
11656;DHT22;5884;43.618;1.438;2023-06-26T06:38:48;21.40;99.90
11656;DHT22;5884;43.618;1.438;2023-06-26T06:41:15;21.40;99.90
11656;DHT22;5884;43.618;1.438;2023-06-26T06:43:43;21.50;99.90
11656;DHT22;5884;43.618;1.438;2023-06-26T06:46:11;21.50;99.90
11656;DHT22;5884;43.618;1.438;2023-06-26T06:48:38;21.50;99.90
11656;DHT22;5884;43.618;1.438;2023-06-26T06:51:06;21.50;99.90
11656;DHT22;5884;43.618;1.438;2023-06-26T06:53:33;21.50;99.90
11656;DHT22;5884;43.618;1.438;2023-06-26T06:56:00;21.50;99.90
11656;DHT22;5884;43.618;1.438;2023-06-26T06:58:27;21.60;99.90
11656;DHT22;5884;43.618;1.438;2023-06-26T07:00:56;21.60;99.90
11656;DHT22;5884;43.618;1.438;2023-06-26T07:03:25;21.70;99.90
11656;DHT22;5884;43.618;1.438;2023-06-26T07:05:52;21.60;99.90
11656;DHT22;5884;43.618;1.438;2023-06-26T07:08:20;21.70;99.90
11656;DHT22;5884;43.618;1.438;2023-06-26T07:10:47;21.70;99.90
11656;DHT22;5884;43.618;1.438;2023-06-26T07:13:14;21.80;99.90
11656;DHT22;5884;43.618;1.438;2023-06-26T07:15:41;21.80;99.90
11656;DHT22;5884;43.618;1.438;2023-06-26T07:18:09;21.90;99.90
11656;DHT22;5884;43.618;1.438;2023-06-26T07:20:38;21.90;99.90
11656;DHT22;5884;43.618;1.438;2023-06-26T07:23:05;22.00;99.90
11656;DHT22;5884;43.618;1.438;2023-06-26T07:25:32;22.10;99.90
11656;DHT22;5884;43.618;1.438;2023-06-26T07:27:59;22.00;99.90
11656;DHT22;5884;43.618;1.438;2023-06-26T07:30:26;22.00;99.90
11656;DHT22;5884;43.618;1.438;2023-06-26T07:32:54;21.90;99.90
11656;DHT22;5884;43.618;1.438;2023-06-26T07:35:21;21.90;99.90
11656;DHT22;5884;43.618;1.438;2023-06-26T07:37:50;21.90;99.90
11656;DHT22;5884;43.618;1.438;2023-06-26T07:40:17;21.90;99.90
11656;DHT22;5884;43.618;1.438;2023-06-26T07:42:44;22.00;99.90
11656;DHT22;5884;43.618;1.438;2023-06-26T07:45:12;22.20;99.90
11656;DHT22;5884;43.618;1.438;2023-06-26T07:47:39;22.10;99.90
11656;DHT22;5884;43.618;1.438;2023-06-26T07:50:07;22.00;99.90
11656;DHT22;5884;43.618;1.438;2023-06-26T07:52:35;22.10;99.90
11656;DHT22;5884;43.618;1.438;2023-06-26T07:55:04;22.20;99.90
11656;DHT22;5884;43.618;1.438;2023-06-26T07:57:32;22.20;99.90
11656;DHT22;5884;43.618;1.438;2023-06-26T07:59:59;22.10;99.90
11656;DHT22;5884;43.618;1.438;2023-06-26T08:02:26;22.40;99.90
11656;DHT22;5884;43.618;1.438;2023-06-26T08:04:54;22.60;99.90
11656;DHT22;5884;43.618;1.438;2023-06-26T08:07:21;22.50;99.90
11656;DHT22;5884;43.618;1.438;2023-06-26T08:09:48;22.60;99.90
11656;DHT22;5884;43.618;1.438;2023-06-26T08:12:17;22.70;99.90
11656;DHT22;5884;43.618;1.438;2023-06-26T08:14:44;22.80;99.90
11656;DHT22;5884;43.618;1.438;2023-06-26T08:17:11;22.90;99.90
11656;DHT22;5884;43.618;1.438;2023-06-26T08:19:38;22.90;99.90
11656;DHT22;5884;43.618;1.438;2023-06-26T08:22:06;23.10;99.90
11656;DHT22;5884;43.618;1.438;2023-06-26T08:24:33;23.30;99.90
11656;DHT22;5884;43.618;1.438;2023-06-26T08:27:02;23.50;99.90
11656;DHT22;5884;43.618;1.438;2023-06-26T08:29:31;23.60;99.90
11656;DHT22;5884;43.618;1.438;2023-06-26T08:31:58;23.20;99.90
11656;DHT22;5884;43.618;1.438;2023-06-26T08:34:27;23.20;99.90
11656;DHT22;5884;43.618;1.438;2023-06-26T08:36:54;23.50;99.90
11656;DHT22;5884;43.618;1.438;2023-06-26T08:39:22;23.50;99.90
11656;DHT22;5884;43.618;1.438;2023-06-26T08:41:49;23.30;99.90
11656;DHT22;5884;43.618;1.438;2023-06-26T08:44:16;22.90;99.90
11656;DHT22;5884;43.618;1.438;2023-06-26T08:46:45;22.80;99.90
11656;DHT22;5884;43.618;1.438;2023-06-26T08:49:18;22.70;99.90
11656;DHT22;5884;43.618;1.438;2023-06-26T08:51:52;22.90;99.90
11656;DHT22;5884;43.618;1.438;2023-06-26T08:54:28;23.20;99.90
11656;DHT22;5884;43.618;1.438;2023-06-26T08:56:59;23.40;99.90
11656;DHT22;5884;43.618;1.438;2023-06-26T08:59:27;23.60;99.90
11656;DHT22;5884;43.618;1.438;2023-06-26T09:01:56;23.70;99.90
11656;DHT22;5884;43.618;1.438;2023-06-26T09:04:25;23.50;99.90
11656;DHT22;5884;43.618;1.438;2023-06-26T09:06:52;23.90;99.90
11656;DHT22;5884;43.618;1.438;2023-06-26T09:09:19;24.30;99.90
11656;DHT22;5884;43.618;1.438;2023-06-26T09:11:47;24.40;99.90
11656;DHT22;5884;43.618;1.438;2023-06-26T09:14:14;24.30;99.90
11656;DHT22;5884;43.618;1.438;2023-06-26T09:16:42;24.10;99.90
11656;DHT22;5884;43.618;1.438;2023-06-26T09:19:11;24.10;99.90
11656;DHT22;5884;43.618;1.438;2023-06-26T09:21:39;23.90;99.90
11656;DHT22;5884;43.618;1.438;2023-06-26T09:24:07;24.00;99.90
11656;DHT22;5884;43.618;1.438;2023-06-26T09:26:36;24.20;99.90
11656;DHT22;5884;43.618;1.438;2023-06-26T09:29:04;24.00;99.90
11656;DHT22;5884;43.618;1.438;2023-06-26T09:31:33;24.00;99.90
11656;DHT22;5884;43.618;1.438;2023-06-26T09:34:02;23.80;99.90
11656;DHT22;5884;43.618;1.438;2023-06-26T09:36:31;23.80;99.90
11656;DHT22;5884;43.618;1.438;2023-06-26T09:39:00;23.60;99.90
11656;DHT22;5884;43.618;1.438;2023-06-26T09:41:28;23.40;99.90
11656;DHT22;5884;43.618;1.438;2023-06-26T09:44:01;23.30;99.90
11656;DHT22;5884;43.618;1.438;2023-06-26T09:46:30;23.30;99.90
11656;DHT22;5884;43.618;1.438;2023-06-26T09:49:00;23.40;99.90
11656;DHT22;5884;43.618;1.438;2023-06-26T09:51:31;23.40;99.90
11656;DHT22;5884;43.618;1.438;2023-06-26T09:53:58;23.50;99.90
11656;DHT22;5884;43.618;1.438;2023-06-26T09:56:27;23.70;99.90
11656;DHT22;5884;43.618;1.438;2023-06-26T09:58:56;23.80;99.90
11656;DHT22;5884;43.618;1.438;2023-06-26T10:01:25;23.50;99.90
11656;DHT22;5884;43.618;1.438;2023-06-26T10:03:52;23.40;99.90
11656;DHT22;5884;43.618;1.438;2023-06-26T10:06:24;23.30;99.90
11656;DHT22;5884;43.618;1.438;2023-06-26T10:08:56;23.10;99.90
11656;DHT22;5884;43.618;1.438;2023-06-26T10:11:28;23.00;99.90
11656;DHT22;5884;43.618;1.438;2023-06-26T10:13:59;23.10;99.90
11656;DHT22;5884;43.618;1.438;2023-06-26T10:16:28;22.90;99.90
11656;DHT22;5884;43.618;1.438;2023-06-26T10:19:01;22.80;99.90
11656;DHT22;5884;43.618;1.438;2023-06-26T10:21:32;22.80;99.90
11656;DHT22;5884;43.618;1.438;2023-06-26T10:24:03;22.70;99.90
11656;DHT22;5884;43.618;1.438;2023-06-26T10:26:31;22.70;99.90
11656;DHT22;5884;43.618;1.438;2023-06-26T10:29:03;22.70;99.90
11656;DHT22;5884;43.618;1.438;2023-06-26T10:31:32;22.80;99.90
11656;DHT22;5884;43.618;1.438;2023-06-26T10:34:00;22.80;99.90
11656;DHT22;5884;43.618;1.438;2023-06-26T10:36:29;22.70;99.90
11656;DHT22;5884;43.618;1.438;2023-06-26T10:39:02;22.60;99.90
11656;DHT22;5884;43.618;1.438;2023-06-26T10:41:37;22.50;99.90
11656;DHT22;5884;43.618;1.438;2023-06-26T10:44:09;22.60;99.90
11656;DHT22;5884;43.618;1.438;2023-06-26T10:46:53;22.60;99.90
11656;DHT22;5884;43.618;1.438;2023-06-26T10:49:25;22.70;99.90
11656;DHT22;5884;43.618;1.438;2023-06-26T10:51:54;22.80;99.90
11656;DHT22;5884;43.618;1.438;2023-06-26T10:54:29;22.80;99.90
11656;DHT22;5884;43.618;1.438;2023-06-26T10:56:58;22.80;99.90
11656;DHT22;5884;43.618;1.438;2023-06-26T10:59:27;22.70;99.90
11656;DHT22;5884;43.618;1.438;2023-06-26T11:01:57;22.70;99.90
11656;DHT22;5884;43.618;1.438;2023-06-26T11:04:40;22.60;99.90
11656;DHT22;5884;43.618;1.438;2023-06-26T11:07:19;22.70;99.90
11656;DHT22;5884;43.618;1.438;2023-06-26T11:09:56;22.70;99.90
11656;DHT22;5884;43.618;1.438;2023-06-26T11:12:34;22.80;99.90
11656;DHT22;5884;43.618;1.438;2023-06-26T11:15:03;22.80;99.90
11656;DHT22;5884;43.618;1.438;2023-06-26T11:17:31;22.90;99.90
11656;DHT22;5884;43.618;1.438;2023-06-26T11:19:58;23.10;99.90
11656;DHT22;5884;43.618;1.438;2023-06-26T11:22:26;23.20;99.90
11656;DHT22;5884;43.618;1.438;2023-06-26T11:24:59;23.40;99.90
11656;DHT22;5884;43.618;1.438;2023-06-26T11:27:31;23.70;99.90
11656;DHT22;5884;43.618;1.438;2023-06-26T11:29:58;23.80;99.90
11656;DHT22;5884;43.618;1.438;2023-06-26T11:32:27;23.90;99.90
11656;DHT22;5884;43.618;1.438;2023-06-26T11:34:54;24.00;99.90
11656;DHT22;5884;43.618;1.438;2023-06-26T11:37:22;24.10;99.90
11656;DHT22;5884;43.618;1.438;2023-06-26T11:39:49;24.10;99.90
11656;DHT22;5884;43.618;1.438;2023-06-26T11:42:20;23.80;99.90
11656;DHT22;5884;43.618;1.438;2023-06-26T11:44:47;23.70;99.90
11656;DHT22;5884;43.618;1.438;2023-06-26T11:47:15;23.70;99.90
11656;DHT22;5884;43.618;1.438;2023-06-26T11:49:44;23.80;99.90
11656;DHT22;5884;43.618;1.438;2023-06-26T11:52:12;23.80;99.90
11656;DHT22;5884;43.618;1.438;2023-06-26T11:54:39;24.00;99.90
11656;DHT22;5884;43.618;1.438;2023-06-26T11:57:07;24.30;99.90
11656;DHT22;5884;43.618;1.438;2023-06-26T11:59:37;24.50;99.90
11656;DHT22;5884;43.618;1.438;2023-06-26T12:02:06;24.90;99.90
11656;DHT22;5884;43.618;1.438;2023-06-26T12:04:36;24.80;99.90
11656;DHT22;5884;43.618;1.438;2023-06-26T12:07:05;24.60;99.90
11656;DHT22;5884;43.618;1.438;2023-06-26T12:09:37;24.80;99.90
11656;DHT22;5884;43.618;1.438;2023-06-26T12:12:07;24.70;99.90
11656;DHT22;5884;43.618;1.438;2023-06-26T12:14:36;24.70;99.90
11656;DHT22;5884;43.618;1.438;2023-06-26T12:17:05;24.50;99.90
11656;DHT22;5884;43.618;1.438;2023-06-26T12:19:34;24.60;99.90
11656;DHT22;5884;43.618;1.438;2023-06-26T12:22:06;24.70;99.90
11656;DHT22;5884;43.618;1.438;2023-06-26T12:24:36;24.70;99.90
11656;DHT22;5884;43.618;1.438;2023-06-26T12:27:08;25.00;99.90
11656;DHT22;5884;43.618;1.438;2023-06-26T12:29:39;25.10;99.90
11656;DHT22;5884;43.618;1.438;2023-06-26T12:32:09;25.30;99.90
11656;DHT22;5884;43.618;1.438;2023-06-26T12:34:38;25.30;99.90
11656;DHT22;5884;43.618;1.438;2023-06-26T12:37:08;25.30;99.90
11656;DHT22;5884;43.618;1.438;2023-06-26T12:39:46;25.40;99.90
11656;DHT22;5884;43.618;1.438;2023-06-26T12:42:16;25.50;99.90
11656;DHT22;5884;43.618;1.438;2023-06-26T12:44:45;25.40;99.90
11656;DHT22;5884;43.618;1.438;2023-06-26T12:47:14;25.50;99.90
11656;DHT22;5884;43.618;1.438;2023-06-26T12:49:43;25.60;99.90
11656;DHT22;5884;43.618;1.438;2023-06-26T12:52:12;25.70;99.90
11656;DHT22;5884;43.618;1.438;2023-06-26T12:54:41;26.00;99.90
11656;DHT22;5884;43.618;1.438;2023-06-26T12:57:10;25.70;99.90
11656;DHT22;5884;43.618;1.438;2023-06-26T12:59:40;26.00;99.90
11656;DHT22;5884;43.618;1.438;2023-06-26T13:02:09;26.10;99.90
11656;DHT22;5884;43.618;1.438;2023-06-26T13:04:38;26.10;99.90
11656;DHT22;5884;43.618;1.438;2023-06-26T13:07:06;26.10;99.90
11656;DHT22;5884;43.618;1.438;2023-06-26T13:09:34;26.00;99.90
11656;DHT22;5884;43.618;1.438;2023-06-26T13:12:03;26.10;99.90
11656;DHT22;5884;43.618;1.438;2023-06-26T13:14:31;26.20;99.90
11656;DHT22;5884;43.618;1.438;2023-06-26T13:16:58;26.30;99.90
11656;DHT22;5884;43.618;1.438;2023-06-26T13:19:28;26.50;99.90
11656;DHT22;5884;43.618;1.438;2023-06-26T13:21:55;26.50;99.90
11656;DHT22;5884;43.618;1.438;2023-06-26T13:24:22;26.60;99.90
11656;DHT22;5884;43.618;1.438;2023-06-26T13:26:49;26.60;99.90
11656;DHT22;5884;43.618;1.438;2023-06-26T13:29:17;26.70;99.90
11656;DHT22;5884;43.618;1.438;2023-06-26T13:31:44;26.70;99.90
11656;DHT22;5884;43.618;1.438;2023-06-26T13:34:21;26.70;99.90
11656;DHT22;5884;43.618;1.438;2023-06-26T13:36:50;26.60;99.90
11656;DHT22;5884;43.618;1.438;2023-06-26T13:39:17;26.40;99.90
11656;DHT22;5884;43.618;1.438;2023-06-26T13:41:45;26.30;99.90
11656;DHT22;5884;43.618;1.438;2023-06-26T13:44:12;26.60;99.90
11656;DHT22;5884;43.618;1.438;2023-06-26T13:46:39;26.50;99.90
11656;DHT22;5884;43.618;1.438;2023-06-26T13:49:07;26.50;99.90
11656;DHT22;5884;43.618;1.438;2023-06-26T13:51:34;26.40;99.90
11656;DHT22;5884;43.618;1.438;2023-06-26T13:54:03;26.50;99.90
11656;DHT22;5884;43.618;1.438;2023-06-26T13:56:30;26.40;99.90
11656;DHT22;5884;43.618;1.438;2023-06-26T13:58:57;26.30;99.90
11656;DHT22;5884;43.618;1.438;2023-06-26T14:01:25;26.50;99.90
11656;DHT22;5884;43.618;1.438;2023-06-26T14:03:52;26.60;99.90
11656;DHT22;5884;43.618;1.438;2023-06-26T14:06:19;26.70;99.90
11656;DHT22;5884;43.618;1.438;2023-06-26T14:08:47;26.70;99.90
11656;DHT22;5884;43.618;1.438;2023-06-26T14:11:16;26.50;99.90
11656;DHT22;5884;43.618;1.438;2023-06-26T14:13:44;26.60;99.90
11656;DHT22;5884;43.618;1.438;2023-06-26T14:16:12;26.70;99.90
11656;DHT22;5884;43.618;1.438;2023-06-26T14:18:40;26.80;99.90
11656;DHT22;5884;43.618;1.438;2023-06-26T14:21:07;26.70;99.90
11656;DHT22;5884;43.618;1.438;2023-06-26T14:23:36;26.70;99.90
11656;DHT22;5884;43.618;1.438;2023-06-26T14:26:04;26.80;99.90
11656;DHT22;5884;43.618;1.438;2023-06-26T14:28:32;26.80;99.90
11656;DHT22;5884;43.618;1.438;2023-06-26T14:30:59;26.80;99.90
11656;DHT22;5884;43.618;1.438;2023-06-26T14:33:27;26.70;99.90
11656;DHT22;5884;43.618;1.438;2023-06-26T14:35:54;26.50;99.90
11656;DHT22;5884;43.618;1.438;2023-06-26T14:38:21;26.50;99.90
11656;DHT22;5884;43.618;1.438;2023-06-26T14:40:48;26.60;99.90
11656;DHT22;5884;43.618;1.438;2023-06-26T14:43:15;26.80;99.90
11656;DHT22;5884;43.618;1.438;2023-06-26T14:45:44;26.80;99.90
11656;DHT22;5884;43.618;1.438;2023-06-26T14:48:11;26.80;99.90
11656;DHT22;5884;43.618;1.438;2023-06-26T14:50:38;26.70;99.90
11656;DHT22;5884;43.618;1.438;2023-06-26T14:53:06;26.70;99.90
11656;DHT22;5884;43.618;1.438;2023-06-26T14:55:33;26.70;99.90
11656;DHT22;5884;43.618;1.438;2023-06-26T14:58:00;26.80;99.90
11656;DHT22;5884;43.618;1.438;2023-06-26T15:00:27;26.50;99.90
11656;DHT22;5884;43.618;1.438;2023-06-26T15:02:56;26.60;99.90
11656;DHT22;5884;43.618;1.438;2023-06-26T15:05:24;26.60;99.90
11656;DHT22;5884;43.618;1.438;2023-06-26T15:07:51;26.60;99.90
11656;DHT22;5884;43.618;1.438;2023-06-26T15:10:18;26.70;99.90
11656;DHT22;5884;43.618;1.438;2023-06-26T15:12:47;26.60;99.90
11656;DHT22;5884;43.618;1.438;2023-06-26T15:15:15;26.60;99.90
11656;DHT22;5884;43.618;1.438;2023-06-26T15:17:43;26.60;99.90
11656;DHT22;5884;43.618;1.438;2023-06-26T15:20:11;26.60;99.90
11656;DHT22;5884;43.618;1.438;2023-06-26T15:22:39;26.80;99.90
11656;DHT22;5884;43.618;1.438;2023-06-26T15:25:07;26.90;99.90
11656;DHT22;5884;43.618;1.438;2023-06-26T15:27:34;26.90;99.90
11656;DHT22;5884;43.618;1.438;2023-06-26T15:30:02;26.80;99.90
11656;DHT22;5884;43.618;1.438;2023-06-26T15:32:31;26.80;99.90
11656;DHT22;5884;43.618;1.438;2023-06-26T15:34:58;26.60;99.90
11656;DHT22;5884;43.618;1.438;2023-06-26T15:37:27;26.50;99.90
11656;DHT22;5884;43.618;1.438;2023-06-26T15:39:54;26.50;99.90
11656;DHT22;5884;43.618;1.438;2023-06-26T15:42:25;26.50;99.90
11656;DHT22;5884;43.618;1.438;2023-06-26T15:44:53;26.40;99.90
11656;DHT22;5884;43.618;1.438;2023-06-26T15:47:20;26.40;99.90
11656;DHT22;5884;43.618;1.438;2023-06-26T15:49:48;26.40;99.90
11656;DHT22;5884;43.618;1.438;2023-06-26T15:52:15;26.40;99.90
11656;DHT22;5884;43.618;1.438;2023-06-26T15:54:43;26.40;99.90
11656;DHT22;5884;43.618;1.438;2023-06-26T15:57:10;26.40;99.90
11656;DHT22;5884;43.618;1.438;2023-06-26T15:59:38;26.30;99.90
11656;DHT22;5884;43.618;1.438;2023-06-26T16:02:05;26.40;99.90
11656;DHT22;5884;43.618;1.438;2023-06-26T16:04:32;26.30;99.90
11656;DHT22;5884;43.618;1.438;2023-06-26T16:07:00;26.30;99.90
11656;DHT22;5884;43.618;1.438;2023-06-26T16:09:31;26.30;99.90
11656;DHT22;5884;43.618;1.438;2023-06-26T16:11:59;26.30;99.90
11656;DHT22;5884;43.618;1.438;2023-06-26T16:14:27;26.30;99.90
11656;DHT22;5884;43.618;1.438;2023-06-26T16:16:54;26.30;99.90
11656;DHT22;5884;43.618;1.438;2023-06-26T16:19:21;26.20;99.90
11656;DHT22;5884;43.618;1.438;2023-06-26T16:21:48;26.20;99.90
11656;DHT22;5884;43.618;1.438;2023-06-26T16:24:15;26.20;99.90
11656;DHT22;5884;43.618;1.438;2023-06-26T16:26:43;26.30;99.90
11656;DHT22;5884;43.618;1.438;2023-06-26T16:29:12;26.30;99.90
11656;DHT22;5884;43.618;1.438;2023-06-26T16:31:39;26.50;99.90
11656;DHT22;5884;43.618;1.438;2023-06-26T16:34:06;26.50;99.90
11656;DHT22;5884;43.618;1.438;2023-06-26T16:36:33;26.60;99.90
11656;DHT22;5884;43.618;1.438;2023-06-26T16:39:00;26.50;99.90
11656;DHT22;5884;43.618;1.438;2023-06-26T16:41:28;26.40;99.90
11656;DHT22;5884;43.618;1.438;2023-06-26T16:43:55;26.40;99.90
11656;DHT22;5884;43.618;1.438;2023-06-26T16:46:24;26.50;99.90
11656;DHT22;5884;43.618;1.438;2023-06-26T16:48:51;26.50;99.90
11656;DHT22;5884;43.618;1.438;2023-06-26T16:51:22;26.70;99.90
11656;DHT22;5884;43.618;1.438;2023-06-26T16:53:49;27.00;99.90
11656;DHT22;5884;43.618;1.438;2023-06-26T16:56:17;27.00;99.90
11656;DHT22;5884;43.618;1.438;2023-06-26T16:58:44;27.10;99.90
11656;DHT22;5884;43.618;1.438;2023-06-26T17:01:12;27.10;99.90
11656;DHT22;5884;43.618;1.438;2023-06-26T17:03:40;27.10;99.90
11656;DHT22;5884;43.618;1.438;2023-06-26T17:06:07;27.00;99.90
11656;DHT22;5884;43.618;1.438;2023-06-26T17:08:36;26.70;99.90
11656;DHT22;5884;43.618;1.438;2023-06-26T17:11:04;26.50;99.90
11656;DHT22;5884;43.618;1.438;2023-06-26T17:13:31;26.30;99.90
11656;DHT22;5884;43.618;1.438;2023-06-26T17:15:59;26.20;99.90
11656;DHT22;5884;43.618;1.438;2023-06-26T17:18:26;26.10;99.90
11656;DHT22;5884;43.618;1.438;2023-06-26T17:20:54;26.00;99.90
11656;DHT22;5884;43.618;1.438;2023-06-26T17:23:21;26.00;99.90
11656;DHT22;5884;43.618;1.438;2023-06-26T17:25:49;26.00;99.90
11656;DHT22;5884;43.618;1.438;2023-06-26T17:28:16;26.10;99.90
11656;DHT22;5884;43.618;1.438;2023-06-26T17:30:43;26.30;99.90
11656;DHT22;5884;43.618;1.438;2023-06-26T17:33:10;26.40;99.90
11656;DHT22;5884;43.618;1.438;2023-06-26T17:35:38;26.40;99.90
11656;DHT22;5884;43.618;1.438;2023-06-26T17:38:06;26.30;99.90
11656;DHT22;5884;43.618;1.438;2023-06-26T17:40:35;26.30;99.90
11656;DHT22;5884;43.618;1.438;2023-06-26T17:43:02;26.30;99.90
11656;DHT22;5884;43.618;1.438;2023-06-26T17:45:29;26.30;99.90
11656;DHT22;5884;43.618;1.438;2023-06-26T17:47:56;26.20;99.90
11656;DHT22;5884;43.618;1.438;2023-06-26T17:50:23;26.00;99.90
11656;DHT22;5884;43.618;1.438;2023-06-26T17:52:50;25.80;99.90
11656;DHT22;5884;43.618;1.438;2023-06-26T17:55:19;25.70;99.90
11656;DHT22;5884;43.618;1.438;2023-06-26T17:57:46;25.50;99.90
11656;DHT22;5884;43.618;1.438;2023-06-26T18:00:14;25.50;99.90
11656;DHT22;5884;43.618;1.438;2023-06-26T18:02:42;25.40;99.90
11656;DHT22;5884;43.618;1.438;2023-06-26T18:05:10;25.70;99.90
11656;DHT22;5884;43.618;1.438;2023-06-26T18:07:37;25.60;99.90
11656;DHT22;5884;43.618;1.438;2023-06-26T18:10:06;25.70;99.90
11656;DHT22;5884;43.618;1.438;2023-06-26T18:12:35;25.80;99.90
11656;DHT22;5884;43.618;1.438;2023-06-26T18:15:03;25.80;99.90
11656;DHT22;5884;43.618;1.438;2023-06-26T18:17:31;25.70;99.90
11656;DHT22;5884;43.618;1.438;2023-06-26T18:19:58;25.60;99.90
11656;DHT22;5884;43.618;1.438;2023-06-26T18:22:27;25.60;99.90
11656;DHT22;5884;43.618;1.438;2023-06-26T18:24:54;25.50;99.90
11656;DHT22;5884;43.618;1.438;2023-06-26T18:27:21;25.50;99.90
11656;DHT22;5884;43.618;1.438;2023-06-26T18:29:50;25.40;99.90
11656;DHT22;5884;43.618;1.438;2023-06-26T18:32:17;25.30;99.90
11656;DHT22;5884;43.618;1.438;2023-06-26T18:34:44;25.30;99.90
11656;DHT22;5884;43.618;1.438;2023-06-26T18:37:11;25.20;99.90
11656;DHT22;5884;43.618;1.438;2023-06-26T18:39:38;25.10;99.90
11656;DHT22;5884;43.618;1.438;2023-06-26T18:42:06;25.10;99.90
11656;DHT22;5884;43.618;1.438;2023-06-26T18:44:34;25.10;99.90
11656;DHT22;5884;43.618;1.438;2023-06-26T18:47:03;25.00;99.90
11656;DHT22;5884;43.618;1.438;2023-06-26T18:49:31;25.00;99.90
11656;DHT22;5884;43.618;1.438;2023-06-26T18:51:58;24.90;99.90
11656;DHT22;5884;43.618;1.438;2023-06-26T18:54:26;24.90;99.90
11656;DHT22;5884;43.618;1.438;2023-06-26T18:56:53;24.80;99.90
11656;DHT22;5884;43.618;1.438;2023-06-26T18:59:26;24.80;99.90
11656;DHT22;5884;43.618;1.438;2023-06-26T19:01:54;24.80;99.90
11656;DHT22;5884;43.618;1.438;2023-06-26T19:04:23;24.70;99.90
11656;DHT22;5884;43.618;1.438;2023-06-26T19:06:50;24.70;99.90
11656;DHT22;5884;43.618;1.438;2023-06-26T19:09:18;24.60;99.90
11656;DHT22;5884;43.618;1.438;2023-06-26T19:11:46;24.60;99.90
11656;DHT22;5884;43.618;1.438;2023-06-26T19:14:13;24.60;99.90
11656;DHT22;5884;43.618;1.438;2023-06-26T19:16:41;24.50;99.90
11656;DHT22;5884;43.618;1.438;2023-06-26T19:19:08;24.50;99.90
11656;DHT22;5884;43.618;1.438;2023-06-26T19:21:37;24.40;99.90
11656;DHT22;5884;43.618;1.438;2023-06-26T19:24:04;24.30;99.90
11656;DHT22;5884;43.618;1.438;2023-06-26T19:26:32;24.30;99.90
11656;DHT22;5884;43.618;1.438;2023-06-26T19:29:00;24.30;99.90
11656;DHT22;5884;43.618;1.438;2023-06-26T19:31:27;24.30;99.90
11656;DHT22;5884;43.618;1.438;2023-06-26T19:33:55;24.30;99.90
11656;DHT22;5884;43.618;1.438;2023-06-26T19:36:22;24.20;99.90
11656;DHT22;5884;43.618;1.438;2023-06-26T19:38:51;24.20;99.90
11656;DHT22;5884;43.618;1.438;2023-06-26T19:41:18;24.10;99.90
11656;DHT22;5884;43.618;1.438;2023-06-26T19:43:46;24.00;99.90
11656;DHT22;5884;43.618;1.438;2023-06-26T19:46:13;24.00;99.90
11656;DHT22;5884;43.618;1.438;2023-06-26T19:48:40;23.90;99.90
11656;DHT22;5884;43.618;1.438;2023-06-26T19:51:07;23.90;99.90
11656;DHT22;5884;43.618;1.438;2023-06-26T19:53:37;23.90;99.90
11656;DHT22;5884;43.618;1.438;2023-06-26T19:56:05;23.80;99.90
11656;DHT22;5884;43.618;1.438;2023-06-26T19:58:32;23.80;99.90
11656;DHT22;5884;43.618;1.438;2023-06-26T20:01:00;23.70;99.90
11656;DHT22;5884;43.618;1.438;2023-06-26T20:03:27;23.60;99.90
11656;DHT22;5884;43.618;1.438;2023-06-26T20:05:54;23.60;99.90
11656;DHT22;5884;43.618;1.438;2023-06-26T20:08:21;23.50;99.90
11656;DHT22;5884;43.618;1.438;2023-06-26T20:10:49;23.50;99.90
11656;DHT22;5884;43.618;1.438;2023-06-26T20:13:17;23.50;99.90
11656;DHT22;5884;43.618;1.438;2023-06-26T20:15:45;23.50;99.90
11656;DHT22;5884;43.618;1.438;2023-06-26T20:18:12;23.50;99.90
11656;DHT22;5884;43.618;1.438;2023-06-26T20:20:39;23.40;99.90
11656;DHT22;5884;43.618;1.438;2023-06-26T20:23:06;23.40;99.90
11656;DHT22;5884;43.618;1.438;2023-06-26T20:25:33;23.30;99.90
11656;DHT22;5884;43.618;1.438;2023-06-26T20:28:01;23.40;99.90
11656;DHT22;5884;43.618;1.438;2023-06-26T20:30:29;23.20;99.90
11656;DHT22;5884;43.618;1.438;2023-06-26T20:32:57;23.20;99.90
11656;DHT22;5884;43.618;1.438;2023-06-26T20:35:24;23.20;99.90
11656;DHT22;5884;43.618;1.438;2023-06-26T20:37:51;23.20;99.90